createdAt,value
2022-10-28T00:23:29.511Z,1024.72
2022-10-28T00:51:54.351Z,1024.56
2022-10-28T01:20:09.960Z,1024.61
2022-10-28T01:48:30.852Z,1024.52
2022-10-28T02:16:47.786Z,1024.38
2022-10-28T02:45:05.937Z,1024.3
2022-10-28T03:13:07.096Z,1024
2022-10-28T03:41:30.019Z,1023.76
2022-10-28T04:09:48.373Z,1023.54
2022-10-28T04:37:59.217Z,1023.46
2022-10-28T05:06:28.368Z,1023.17
2022-10-28T05:34:49.875Z,1023.86
2022-10-28T06:03:10.859Z,1023.76
2022-10-28T06:31:31.318Z,1023.67
2022-10-28T06:59:46.437Z,1024.03
2022-10-28T07:28:04.009Z,1023.99
2022-10-28T07:57:13.972Z,1024.12
2022-10-28T08:25:25.609Z,1024.14
2022-10-28T08:53:51.190Z,1023.89
2022-10-28T09:22:27.019Z,1024.21
2022-10-28T09:51:00.782Z,1024.25
2022-10-28T10:19:21.666Z,1023.97
2022-10-28T10:48:16.944Z,1023.93
2022-10-28T11:17:11.079Z,1023.81
2022-10-28T11:45:35.783Z,1024.07
2022-10-28T12:13:57.298Z,1023.51
2022-10-28T12:42:21.278Z,1023.35
2022-10-28T13:10:56.273Z,1023.54
2022-10-28T13:39:22.575Z,1023.3
2022-10-28T14:07:45.481Z,1023.17
2022-10-28T14:36:46.863Z,1023.27
2022-10-28T15:05:36.161Z,1023.29
2022-10-28T15:34:15.535Z,1023.2
2022-10-28T16:03:05.531Z,1023.34
2022-10-28T16:31:48.150Z,1023.5
2022-10-28T17:00:41.835Z,1023.78
2022-10-28T17:29:37.086Z,1023.8
2022-10-28T17:58:16.136Z,1024.11
2022-10-28T18:26:35.624Z,1024.18
2022-10-28T18:55:31.247Z,1024.17
2022-10-28T19:24:25.273Z,1024.28
2022-10-28T19:53:25.766Z,1024.23
2022-10-28T20:22:18.600Z,1024.41
2022-10-28T20:51:12.535Z,1024.66
2022-10-28T21:20:17.082Z,1024.58
2022-10-28T21:49:04.804Z,1024.7
2022-10-28T22:18:02.588Z,1024.69
2022-10-28T22:46:24.186Z,1024.82
2022-10-28T23:14:43.427Z,1024.77
2022-10-28T23:42:59.663Z,1024.69
